Time;durP1;ratioP1;P1;durP2;ratioP2;P2;SDS_P1;SDS_P2;PMS_P1;PMS_P2;Temp;Humidity;BMP_temperature;BMP_pressure;BME280_temperature;BME280_humidity;BME280_pressure;Samples;Min_cycle;Max_cycle;Signal;HPM_P1;HPM_P2
2022/02/07 00:01:46;;;;;;;10.02;8.95;;;;;;;6.83;60.47;99400.97;6277604;22;19999;-89
2022/02/07 00:04:16;;;;;;;10.70;8.88;;;;;;;6.68;60.89;99343.00;6305273;22;20018;-90
2022/02/07 00:06:43;;;;;;;11.48;8.50;;;;;;;6.61;60.53;99326.25;6305155;22;20018;-90
2022/02/07 00:09:08;;;;;;;10.38;9.15;;;;;;;7.14;60.93;99412.56;6304978;22;19999;-90
2022/02/07 00:11:34;;;;;;;11.60;9.45;;;;;;;7.06;61.24;99406.47;6305111;22;20430;-89
2022/02/07 00:14:00;;;;;;;11.65;10.02;;;;;;;7.47;60.82;99507.25;6279013;22;20074;-90
2022/02/07 00:16:25;;;;;;;10.80;9.70;;;;;;;7.30;61.04;99453.81;6279784;22;20122;-90
2022/02/07 00:18:50;;;;;;;11.18;9.60;;;;;;;7.13;60.60;99424.06;6280527;22;20083;-89
2022/02/07 00:21:16;;;;;;;11.77;9.98;;;;;;;6.62;60.69;99364.59;6280071;22;20074;-89
2022/02/07 00:23:41;;;;;;;11.30;9.52;;;;;;;6.82;61.00;99389.66;6279323;22;20440;-89
2022/02/07 00:26:07;;;;;;;13.32;8.95;;;;;;;6.93;61.25;99410.38;6279438;22;19999;-90
2022/02/07 00:28:32;;;;;;;9.48;8.48;;;;;;;6.69;60.88;99387.47;6279471;22;20014;-89
2022/02/07 00:30:57;;;;;;;8.88;7.40;;;;;;;6.97;61.34;99395.13;6279526;22;19995;-90
2022/02/07 00:33:23;;;;;;;8.68;7.78;;;;;;;7.16;61.09;99412.41;6279351;22;19999;-89
2022/02/07 00:35:48;;;;;;;9.18;7.45;;;;;;;6.94;60.89;99363.94;6279407;22;20060;-89
2022/02/07 00:38:18;;;;;;;8.68;7.90;;;;;;;7.33;60.40;99419.34;6279346;22;20074;-89
2022/02/07 00:45:57;;;;;;;9.15;8.18;;;;;;;6.73;60.38;99290.91;6306751;22;20011;-90
2022/02/07 00:48:24;;;;;;;17.35;8.68;;;;;;;7.48;61.02;99423.03;6279296;22;19999;-90
2022/02/07 00:50:51;;;;;;;8.57;7.72;;;;;;;7.63;61.05;99416.16;6279082;22;20061;-89
2022/02/07 00:53:17;;;;;;;8.70;7.80;;;;;;;7.66;60.27;99415.00;6306566;22;19999;-89
2022/02/07 00:55:43;;;;;;;9.05;8.02;;;;;;;7.54;60.30;99385.59;6279093;22;20485;-90
2022/02/07 00:58:09;;;;;;;9.15;7.68;;;;;;;7.70;60.68;99405.00;6278908;22;20007;-90
2022/02/07 01:00:34;;;;;;;9.38;8.43;;;;;;;7.43;60.40;99348.28;6278972;22;20003;-89
2022/02/07 01:03:00;;;;;;;10.40;9.18;;;;;;;7.73;60.63;99388.91;6279175;22;20003;-89
2022/02/07 01:05:27;;;;;;;9.15;8.25;;;;;;;7.75;60.55;99405.31;6279176;22;20011;-90
2022/02/07 01:07:53;;;;;;;8.45;7.65;;;;;;;7.42;60.77;99331.72;6279089;22;19999;-89
2022/02/07 01:10:26;;;;;;;8.82;7.78;;;;;;;7.77;60.49;99370.00;6293421;22;19987;-89
2022/02/07 01:53:00;;;;;;;10.85;9.55;;;;;;;6.91;61.98;99225.16;6290304;22;19999;-91
2022/02/07 01:57:55;;;;;;;12.73;11.15;;;;;;;6.72;62.39;99165.13;6306140;22;20030;-91
2022/02/07 02:00:21;;;;;;;13.55;12.15;;;;;;;6.84;62.24;99205.81;6278325;22;20003;-92
2022/02/07 02:02:47;;;;;;;14.70;12.00;;;;;;;7.18;62.53;99252.91;6280215;22;20356;-91
2022/02/07 02:05:14;;;;;;;12.77;11.43;;;;;;;6.41;62.11;99167.50;6306148;22;20410;-91
2022/02/07 02:07:42;;;;;;;16.05;12.98;;;;;;;6.14;61.92;99101.25;6279030;22;20064;-91
2022/02/07 02:10:09;;;;;;;14.20;12.73;;;;;;;6.92;62.34;99251.25;6305959;22;20431;-90
2022/02/07 02:12:42;;;;;;;15.82;13.48;;;;;;;6.49;62.47;99199.00;6306037;22;19991;-92
2022/02/07 02:15:32;;;;;;;16.17;13.05;;;;;;;6.92;62.30;99253.88;6306324;22;20513;-91
2022/02/07 02:32:40;;;;;;;11.32;9.75;;;;;;;6.03;63.11;99105.00;6306200;22;20084;-92
2022/02/07 02:46:54;;;;;;;16.15;14.45;;;;;;;5.81;62.88;99062.78;6305656;22;20005;-90
2022/02/07 02:49:20;;;;;;;17.23;14.48;;;;;;;6.40;63.10;99187.66;6278118;22;19995;-90
2022/02/07 02:51:46;;;;;;;17.03;14.07;;;;;;;6.59;63.19;99205.75;6278118;22;19991;-91
2022/02/07 02:54:11;;;;;;;16.70;13.88;;;;;;;6.17;62.56;99155.97;6277766;22;20003;-91
2022/02/07 02:56:37;;;;;;;15.50;13.55;;;;;;;6.09;62.76;99147.25;6277950;22;20003;-90
2022/02/07 02:59:04;;;;;;;15.13;13.52;;;;;;;6.53;63.35;99201.13;6277980;22;20344;-90
2022/02/07 03:01:30;;;;;;;14.17;12.10;;;;;;;6.52;63.08;99203.91;6278621;22;19999;-90
2022/02/07 03:03:55;;;;;;;13.20;11.77;;;;;;;6.48;63.01;99200.78;6278499;22;20042;-91
2022/02/07 03:06:21;;;;;;;14.03;11.60;;;;;;;6.07;63.11;99150.03;6278409;22;19995;-90
2022/02/07 03:08:47;;;;;;;14.52;13.02;;;;;;;6.51;62.92;99191.78;6278478;22;19999;-90
2022/02/07 03:11:24;;;;;;;14.95;13.35;;;;;;;4.99;63.20;98975.22;6305659;22;20066;-90
2022/02/07 03:13:58;;;;;;;15.00;13.37;;;;;;;5.67;63.39;99109.56;6278303;22;20003;-90
2022/02/07 03:16:37;;;;;;;16.53;14.00;;;;;;;6.47;62.86;99188.66;6278365;22;20037;-90
2022/02/07 03:19:06;;;;;;;16.67;14.73;;;;;;;6.28;62.89;99173.22;6278043;22;19995;-90
2022/02/07 03:21:32;;;;;;;15.83;14.13;;;;;;;5.88;63.28;99076.88;6305241;22;19995;-91
2022/02/07 03:23:58;;;;;;;18.03;15.23;;;;;;;6.51;62.75;99174.25;6278048;22;20010;-92
2022/02/07 03:26:23;;;;;;;18.37;15.30;;;;;;;6.41;63.41;99157.84;6278609;22;20510;-92
2022/02/07 03:28:49;;;;;;;17.77;14.53;;;;;;;5.92;63.16;99101.81;6278645;22;20003;-92
2022/02/07 03:31:15;;;;;;;18.80;15.90;;;;;;;6.38;62.76;99166.03;6278769;22;19995;-92
2022/02/07 03:33:41;;;;;;;18.60;15.93;;;;;;;5.58;63.02;99038.97;6305875;22;20002;-92
2022/02/07 03:36:06;;;;;;;19.20;15.80;;;;;;;5.59;63.09;99053.72;6305769;22;19995;-92
2022/02/07 03:38:32;;;;;;;18.90;14.17;;;;;;;6.05;63.12;99144.97;6305919;22;20503;-92
2022/02/07 03:40:57;;;;;;;16.80;13.40;;;;;;;5.50;62.94;99046.81;6278835;22;20379;-92
2022/02/07 03:43:23;;;;;;;17.80;14.73;;;;;;;6.40;63.05;99179.78;6306118;22;20003;-92
2022/02/07 03:45:49;;;;;;;19.33;16.60;;;;;;;5.95;61.96;99109.38;6305789;22;19995;-92
2022/02/07 03:48:14;;;;;;;18.20;14.47;;;;;;;6.38;62.50;99193.06;6306346;22;20026;-92
2022/02/07 03:50:40;;;;;;;18.43;15.60;;;;;;;5.69;61.79;99073.56;6307738;22;19998;-92
2022/02/07 03:53:05;;;;;;;20.30;16.37;;;;;;;5.83;61.91;99097.50;6280502;22;20006;-92
2022/02/07 03:55:31;;;;;;;19.10;15.20;;;;;;;5.16;62.16;98997.06;6280461;22;20002;-92
2022/02/07 03:57:56;;;;;;;21.20;17.57;;;;;;;5.27;61.71;99041.31;6308040;22;20003;-92
2022/02/07 04:00:22;;;;;;;27.73;20.57;;;;;;;5.84;61.88;99152.34;6307699;22;20042;-92
2022/02/07 04:02:51;;;;;;;42.23;27.50;;;;;;;5.67;61.93;99135.75;6307836;22;20076;-91
2022/02/07 04:07:54;;;;;;;41.47;27.93;;;;;;;5.30;61.79;99085.50;6308145;22;20479;-91
2022/02/07 04:10:21;;;;;;;31.90;23.87;;;;;;;5.87;62.11;99161.69;6280626;22;20022;-92
2022/02/07 04:12:53;;;;;;;28.97;22.63;;;;;;;5.61;62.19;99128.50;6280547;22;20456;-92
2022/02/07 04:15:19;;;;;;;;;;;;;;;5.63;62.28;99152.75;6281019;22;20022;-92
2022/02/07 04:17:52;;;;;;;25.73;18.90;;;;;;;5.42;62.17;99129.56;6280610;22;19911;-91
2022/02/07 04:20:18;;;;;;;24.67;19.42;;;;;;;4.92;62.23;99022.13;6280235;22;20333;-92
2022/02/07 04:22:44;;;;;;;24.70;20.07;;;;;;;5.26;62.08;99084.97;6280360;22;20181;-92
2022/02/07 04:25:10;;;;;;;24.37;20.00;;;;;;;5.35;62.04;99080.59;6280712;22;20133;-92
2022/02/07 04:27:36;;;;;;;25.17;19.60;;;;;;;5.43;62.09;99119.91;6280617;22;20003;-91
2022/02/07 04:30:04;;;;;;;28.10;21.70;;;;;;;4.96;62.22;99062.69;6280414;22;20344;-92
2022/02/07 04:32:29;;;;;;;26.87;21.47;;;;;;;3.36;62.00;98819.94;6280473;22;20419;-91
2022/02/07 04:35:17;;;;;;;26.37;21.20;;;;;;;4.23;61.76;98981.09;6280788;22;20035;-89
2022/02/07 04:37:42;;;;;;;29.10;22.30;;;;;;;5.16;62.07;99078.19;6309835;22;20003;-88
2022/02/07 04:40:08;;;;;;;29.53;22.97;;;;;;;5.43;61.64;99125.97;6281778;22;20013;-89
2022/02/07 04:42:33;;;;;;;26.17;21.07;;;;;;;4.84;61.96;99055.25;6283722;22;20037;-90
2022/02/07 04:55:30;;;;;;;31.87;25.77;;;;;;;3.14;62.06;98794.31;6335367;22;20002;-87
2022/02/07 04:57:58;;;;;;;37.03;28.67;;;;;;;3.04;62.30;98785.75;6332053;22;20004;-88
2022/02/07 05:00:37;;;;;;;33.72;26.60;;;;;;;3.44;62.54;98897.47;6336100;22;20017;-87
2022/02/07 05:03:25;;;;;;;40.00;31.63;;;;;;;4.17;62.50;99000.00;6311091;22;20045;-88
2022/02/07 05:13:51;;;;;;;58.90;42.30;;;;;;;2.22;62.46;98693.66;6290084;22;19995;-89
2022/02/07 05:16:28;;;;;;;60.93;42.57;;;;;;;2.09;62.28;98721.81;6306386;22;20218;-86
2022/02/07 05:18:57;;;;;;;50.13;34.30;;;;;;;2.54;62.53;98810.44;6282348;22;19988;-87
2022/02/07 05:21:23;;;;;;;42.60;33.10;;;;;;;1.85;62.65;98641.66;6280015;22;19998;-88
2022/02/07 05:23:49;;;;;;;33.10;27.33;;;;;;;2.72;62.40;98859.19;6306260;22;19988;-87
2022/02/07 05:26:15;;;;;;;32.73;26.83;;;;;;;1.78;62.31;98634.56;6306248;22;19987;-87
2022/02/07 05:28:41;;;;;;;40.00;31.50;;;;;;;2.66;62.50;98779.81;6306074;22;19988;-88
2022/02/07 05:31:08;;;;;;;42.27;30.97;;;;;;;2.15;62.68;98712.59;6306342;22;19994;-87
2022/02/07 05:33:33;;;;;;;55.27;38.40;;;;;;;2.06;62.55;98687.44;6280085;22;20014;-89
2022/02/07 05:35:59;;;;;;;71.17;48.13;;;;;;;1.64;62.26;98672.28;6306097;22;20023;-86
2022/02/07 05:38:25;;;;;;;64.23;47.40;;;;;;;2.97;62.72;98925.47;6306014;22;19994;-87
2022/02/07 05:40:59;;;;;;;63.07;47.70;;;;;;;1.54;62.68;98663.69;6305942;22;19992;-85
2022/02/07 05:43:25;;;;;;;50.97;40.90;;;;;;;2.22;62.81;98828.25;6306116;22;19984;-87
2022/02/07 05:45:50;;;;;;;49.93;39.43;;;;;;;2.53;63.02;98891.38;6306204;22;20021;-86
2022/02/07 05:48:16;;;;;;;53.30;40.47;;;;;;;4.44;63.07;99202.94;6305981;22;20022;-88
2022/02/07 05:50:41;;;;;;;62.17;42.70;;;;;;;2.04;63.04;98801.31;6280088;22;19988;-87
2022/02/07 05:53:07;;;;;;;63.87;45.23;;;;;;;2.40;62.94;98883.88;6280052;22;20011;-85
2022/02/07 05:55:32;;;;;;;63.87;46.00;;;;;;;4.37;63.34;99218.38;6279763;22;20059;-88
2022/02/07 05:57:58;;;;;;;63.17;41.73;;;;;;;2.87;63.01;98923.72;6280140;22;19983;-87
2022/02/07 06:00:23;;;;;;;61.40;43.53;;;;;;;4.45;62.82;99191.53;6272090;22;19996;-87
2022/02/07 06:02:49;;;;;;;62.00;42.93;;;;;;;2.70;62.94;98871.53;6275107;22;20015;-85
2022/02/07 06:05:14;;;;;;;66.70;46.13;;;;;;;1.65;62.78;98712.94;6275242;22;19988;-86
2022/02/07 06:07:40;;;;;;;70.23;48.17;;;;;;;2.82;62.65;98878.22;6274625;22;19988;-85
2022/02/07 06:10:52;;;;;;;73.97;49.63;;;;;;;4.72;62.63;99154.06;6274751;22;20003;-84
2022/02/07 06:22:20;;;;;;;59.27;45.00;;;;;;;3.49;63.07;99004.84;6245475;22;20027;-87
2022/02/07 06:24:46;;;;;;;48.93;35.27;;;;;;;2.69;63.17;98852.47;6306029;22;19987;-86
2022/02/07 06:27:12;;;;;;;45.23;36.43;;;;;;;2.52;63.45;98861.88;6305250;22;19987;-89
2022/02/07 06:29:38;;;;;;;50.37;36.23;;;;;;;2.84;63.26;98915.38;6305275;22;20032;-88
2022/02/07 06:32:04;;;;;;;46.97;35.57;;;;;;;3.26;63.31;98954.88;6305762;22;19990;-86
2022/02/07 06:34:29;;;;;;;47.23;36.43;;;;;;;2.81;63.37;98872.19;6305019;22;19995;-86
2022/02/07 06:36:54;;;;;;;41.17;34.63;;;;;;;3.19;63.42;98889.41;6305603;22;20006;-85
2022/02/07 06:39:21;;;;;;;47.37;35.27;;;;;;;3.67;63.10;98982.22;6304379;22;19990;-86
2022/02/07 06:41:47;;;;;;;41.93;33.30;;;;;;;4.75;63.03;99164.22;6304518;22;20059;-87
2022/02/07 06:44:12;;;;;;;48.17;36.40;;;;;;;5.04;62.99;99156.94;6297497;22;19988;-86
2022/02/07 06:46:38;;;;;;;44.00;34.93;;;;;;;3.02;62.88;98798.94;6287561;22;19996;-88
2022/02/07 06:49:04;;;;;;;47.63;36.77;;;;;;;5.19;62.89;99098.81;6280275;22;20006;-88
2022/02/07 06:51:29;;;;;;;46.53;35.97;;;;;;;4.37;62.81;98995.41;6280100;22;20021;-88
2022/02/07 06:53:55;;;;;;;53.13;38.90;;;;;;;3.46;62.68;98845.97;6283648;22;20025;-89
2022/02/07 06:56:21;;;;;;;56.00;41.30;;;;;;;4.35;62.92;98976.47;6277594;22;19999;-89
2022/02/07 06:58:47;;;;;;;59.43;45.73;;;;;;;4.64;62.65;98997.09;6282803;22;19995;-90
2022/02/07 07:01:13;;;;;;;57.37;44.13;;;;;;;4.12;62.61;98901.19;6305680;22;20003;-90
2022/02/07 07:03:43;;;;;;;52.17;40.37;;;;;;;3.77;62.65;98839.38;6303890;22;20029;-90
2022/02/07 07:06:09;;;;;;;61.17;48.20;;;;;;;4.98;62.78;99037.19;6303426;22;20404;-90
2022/02/07 07:08:40;;;;;;;66.83;50.97;;;;;;;5.01;62.54;99044.75;6304479;22;20333;-91
2022/02/07 07:11:06;;;;;;;54.87;42.37;;;;;;;5.31;62.57;99064.41;6304818;22;19987;-93
2022/02/07 07:13:41;;;;;;;52.47;39.57;;;;;;;4.90;62.65;98970.94;6304442;22;20033;-90
2022/02/07 07:18:50;;;;;;;47.10;35.20;;;;;;;5.83;62.55;99106.19;6307105;22;20009;-92
2022/02/07 07:21:16;;;;;;;48.37;36.80;;;;;;;5.91;62.28;99092.31;6305720;22;20031;-92
2022/02/07 07:23:43;;;;;;;60.67;44.03;;;;;;;5.26;62.21;98996.00;6304257;22;20370;-90
2022/02/07 07:26:08;;;;;;;69.93;47.33;;;;;;;5.18;62.32;98956.66;6303117;22;20011;-89
2022/02/07 07:28:36;;;;;;;67.00;43.67;;;;;;;5.35;62.00;98989.81;6301370;22;20060;-89
2022/02/07 07:31:04;;;;;;;54.87;40.97;;;;;;;5.45;61.84;99008.00;6301514;22;20003;-88
2022/02/07 07:33:31;;;;;;;47.30;34.77;;;;;;;5.94;62.15;99090.19;6304573;22;19999;-89
2022/02/07 07:35:57;;;;;;;48.10;34.47;;;;;;;5.42;61.76;99018.78;6303160;22;20408;-89
2022/02/07 07:38:26;;;;;;;45.23;33.67;;;;;;;6.09;62.25;99074.69;6302447;22;20071;-89
2022/02/07 07:40:52;;;;;;;35.93;28.53;;;;;;;6.00;62.10;99065.19;6302887;22;20014;-87
2022/02/07 07:43:17;;;;;;;38.27;29.90;;;;;;;5.54;62.18;98995.75;6304551;22;20428;-89
2022/02/07 07:45:46;;;;;;;36.00;28.33;;;;;;;6.04;61.69;99063.88;6304632;22;19995;-92
2022/02/07 07:48:16;;;;;;;34.37;26.23;;;;;;;6.12;61.72;99045.56;6305678;22;20088;-91
2022/02/07 08:04:10;;;;;;;28.60;21.83;;;;;;;6.49;61.49;99020.66;6336559;22;20125;-93
2022/02/07 08:07:21;;;;;;;45.53;36.20;;;;;;;6.78;61.55;99041.97;6308478;22;19994;-91
2022/02/07 08:09:46;;;;;;;61.77;47.57;;;;;;;6.58;61.75;98999.50;6318344;22;19999;-88
2022/02/07 08:12:13;;;;;;;36.13;27.38;;;;;;;6.31;61.16;98942.19;6307938;22;20007;-90
2022/02/07 08:14:39;;;;;;;31.30;23.27;;;;;;;6.17;61.51;98924.50;6306454;22;20041;-89
2022/02/07 08:17:06;;;;;;;27.63;23.13;;;;;;;6.62;61.00;98965.91;6307292;22;19999;-90
2022/02/07 08:19:33;;;;;;;29.67;23.97;;;;;;;6.61;61.26;98949.34;6307420;22;20336;-90
2022/02/07 08:21:59;;;;;;;34.88;27.35;;;;;;;6.11;61.13;98857.84;6308104;22;20003;-90
2022/02/07 08:24:25;;;;;;;41.30;32.43;;;;;;;6.80;61.45;98950.81;6308358;22;20451;-88
2022/02/07 08:26:53;;;;;;;42.97;33.83;;;;;;;6.82;61.30;98954.06;6307788;22;20028;-92
2022/02/07 08:29:18;;;;;;;35.35;26.85;;;;;;;6.74;60.82;98911.31;6308373;22;20520;-88
2022/02/07 08:31:44;;;;;;;39.47;31.08;;;;;;;7.41;61.36;98990.44;6309026;22;19995;-94
2022/02/07 08:34:09;;;;;;;36.53;29.17;;;;;;;6.88;60.89;98918.47;6308288;22;20347;-90
2022/02/07 08:36:35;;;;;;;32.35;26.27;;;;;;;7.71;61.01;99017.72;6310809;22;20010;-91
2022/02/07 08:39:02;;;;;;;34.92;27.85;;;;;;;7.38;60.27;98946.13;6306857;22;19999;-91
2022/02/07 08:41:28;;;;;;;21.00;17.10;;;;;;;7.83;60.99;99030.31;6307752;22;20010;-91
2022/02/07 08:43:54;;;;;;;18.30;15.48;;;;;;;7.74;60.64;98984.03;6309438;22;20022;-90
2022/02/07 08:46:20;;;;;;;19.65;15.98;;;;;;;7.48;60.76;98921.31;6309613;22;19999;-90
2022/02/07 08:48:45;;;;;;;17.42;15.30;;;;;;;7.96;60.28;98967.47;6336826;22;19999;-90
2022/02/07 08:51:10;;;;;;;20.98;17.60;;;;;;;7.77;60.13;98936.41;6335357;22;19999;-89
2022/02/07 08:53:42;;;;;;;20.27;16.73;;;;;;;8.21;60.58;98976.03;6308680;22;19998;-90
2022/02/07 08:56:09;;;;;;;19.48;15.48;;;;;;;8.06;59.93;98942.75;6310413;22;19995;-94
2022/02/07 08:58:37;;;;;;;22.23;18.67;;;;;;;8.16;59.97;98940.69;6336246;22;20704;-89
2022/02/07 09:11:15;;;;;;;21.95;18.70;;;;;;;8.53;59.43;98926.78;6336533;22;20401;-92
2022/02/07 09:13:43;;;;;;;26.10;20.63;;;;;;;8.89;59.36;98967.19;6310474;22;19998;-89
2022/02/07 09:18:38;;;;;;;21.38;17.05;;;;;;;9.04;58.84;98966.41;6335644;22;20091;-89
2022/02/07 09:21:08;;;;;;;20.10;17.20;;;;;;;9.12;58.77;98945.22;6336431;22;19999;-91
2022/02/07 09:23:35;;;;;;;19.20;16.42;;;;;;;8.96;58.48;98909.38;6309300;22;20435;-90
2022/02/07 09:26:01;;;;;;;19.63;16.60;;;;;;;9.33;58.17;98939.19;6309985;22;20007;-91
2022/02/07 09:28:27;;;;;;;21.27;16.58;;;;;;;7.66;58.06;98684.59;6336607;22;19998;-91
2022/02/07 09:30:53;;;;;;;21.77;17.75;;;;;;;9.53;57.92;98927.06;6309496;22;19991;-90
2022/02/07 09:33:20;;;;;;;20.02;17.25;;;;;;;9.63;57.80;98924.13;6337062;22;19999;-91
2022/02/07 09:35:46;;;;;;;22.55;18.60;;;;;;;9.03;57.31;98801.50;6308705;22;19998;-90
2022/02/07 09:38:11;;;;;;;21.05;16.42;;;;;;;9.23;57.22;98808.59;6337044;22;19998;-90
2022/02/07 09:40:38;;;;;;;19.58;15.35;;;;;;;9.29;57.03;98811.50;6337622;22;20010;-91
2022/02/07 09:43:05;;;;;;;18.38;14.77;;;;;;;9.80;56.92;98865.72;6337238;22;19994;-91
2022/02/07 09:45:35;;;;;;;17.00;14.82;;;;;;;10.13;56.70;98894.19;6336635;22;20060;-91
2022/02/07 09:48:06;;;;;;;30.88;15.57;;;;;;;9.98;56.77;98838.91;6309860;22;20001;-90
2022/02/07 09:50:32;;;;;;;22.00;14.23;;;;;;;10.32;56.23;98876.91;6310265;22;20001;-91
2022/02/07 09:52:58;;;;;;;19.35;12.95;;;;;;;10.02;55.71;98826.16;6310007;22;20457;-91
2022/02/07 09:55:24;;;;;;;16.50;13.50;;;;;;;10.12;55.45;98823.97;6307744;22;20085;-91
2022/02/07 09:57:53;;;;;;;14.10;12.52;;;;;;;9.83;55.36;98785.44;6336452;22;19994;-89
2022/02/07 10:00:23;;;;;;;14.88;12.90;;;;;;;9.92;55.01;98773.75;6337432;22;20450;-90
2022/02/07 10:03:01;;;;;;;16.90;14.15;;;;;;;10.27;55.51;98793.06;6309277;22;20440;-89
2022/02/07 10:05:28;;;;;;;18.10;13.85;;;;;;;10.18;54.73;98749.34;6308794;22;20005;-91
2022/02/07 10:13:09;;;;;;;27.92;20.38;;;;;;;10.97;53.75;98793.78;6335658;22;20006;-91
2022/02/07 10:16:00;;;;;;;20.08;14.43;;;;;;;10.54;54.36;98721.97;6308715;22;19999;-93
2022/02/07 10:40:27;;;;;;;28.58;17.42;;;;;;;11.34;54.68;98734.34;6335015;22;20007;-90
2022/02/07 10:45:34;;;;;;;20.45;16.60;;;;;;;11.38;54.48;98725.81;6336131;22;20003;-90
2022/02/07 10:48:04;;;;;;;18.00;13.38;;;;;;;11.64;54.65;98697.72;6336042;22;20011;-89
2022/02/07 10:50:30;;;;;;;21.38;17.10;;;;;;;11.69;54.83;98690.00;6309259;22;20356;-89
2022/02/07 10:53:00;;;;;;;30.33;21.70;;;;;;;11.50;54.64;98607.06;6307981;22;20002;-89
2022/02/07 10:55:36;;;;;;;27.25;21.00;;;;;;;11.97;54.46;98653.56;6308595;22;19994;-89
2022/02/07 10:58:05;;;;;;;22.17;16.75;;;;;;;12.32;54.75;98690.28;6309293;22;20009;-89
2022/02/07 11:00:37;;;;;;;19.13;16.40;;;;;;;11.34;53.94;98522.94;6309190;22;20013;-89
2022/02/07 11:03:09;;;;;;;18.23;14.02;;;;;;;11.66;54.27;98582.81;6307334;22;19995;-89
2022/02/07 11:05:48;;;;;;;;;;;;;;;12.29;54.97;98670.34;6308948;22;19995;-89
2022/02/07 11:08:26;;;;;;;20.35;13.90;;;;;;;11.95;54.41;98625.69;6308098;22;20332;-88
2022/02/07 11:16:30;;;;;;;13.48;8.85;;;;;;;12.40;54.21;98655.63;6318402;22;20070;-89
2022/02/07 11:19:28;;;;;;;9.48;5.68;;;;;;;11.10;53.85;98427.44;6309308;22;20010;-88
2022/02/07 11:25:20;;;;;;;8.27;5.43;;;;;;;12.43;54.17;98614.69;6354292;22;20030;-88
2022/02/07 11:27:40;;;;;;;9.63;6.55;;;;;;;12.44;53.88;98609.19;6358730;22;19999;-88
2022/02/07 11:30:14;;;;;;;11.27;7.47;;;;;;;12.31;54.29;98569.53;6363608;22;19995;-88
2022/02/07 11:32:40;;;;;;;10.73;7.50;;;;;;;12.64;54.12;98611.72;6362696;22;19995;-88
2022/02/07 11:35:07;;;;;;;14.52;8.65;;;;;;;12.73;53.72;98607.78;6333986;22;20022;-88
2022/02/07 11:37:33;;;;;;;9.13;6.35;;;;;;;12.53;53.87;98586.72;6316622;22;20074;-88
2022/02/07 11:39:58;;;;;;;8.55;6.13;;;;;;;12.17;53.80;98523.81;6321439;22;19999;-88
2022/02/07 11:42:24;;;;;;;8.45;6.45;;;;;;;12.20;53.54;98518.09;6321915;22;19999;-89
2022/02/07 11:44:53;;;;;;;9.43;6.05;;;;;;;12.90;53.01;98608.88;6320044;22;19999;-87
2022/02/07 11:47:26;;;;;;;10.13;6.53;;;;;;;12.94;53.31;98619.88;6311784;22;20018;-87
2022/02/07 11:49:59;;;;;;;12.32;7.70;;;;;;;13.01;52.31;98600.25;6310492;22;20002;-87
2022/02/07 11:52:41;;;;;;;6.18;5.07;;;;;;;13.04;52.02;98593.69;6309111;22;20029;-87
2022/02/07 11:55:11;;;;;;;12.38;8.10;;;;;;;12.40;52.12;98504.72;6308131;22;19994;-87
2022/02/07 11:57:40;;;;;;;10.07;6.40;;;;;;;12.86;52.28;98548.59;6308595;22;20002;-88
2022/02/07 12:00:17;;;;;;;9.30;6.93;;;;;;;13.07;51.80;98572.06;6308547;22;20005;-87
2022/02/07 12:02:49;;;;;;;11.52;8.45;;;;;;;12.70;51.99;98507.59;6305535;22;20073;-88
2022/02/07 12:05:22;;;;;;;7.35;5.13;;;;;;;12.57;51.97;98510.31;6305869;22;20100;-88
2022/02/07 12:08:07;;;;;;;6.25;4.68;;;;;;;12.92;51.47;98516.75;6335143;22;20002;-88
2022/02/07 12:10:39;;;;;;;10.65;5.55;;;;;;;12.96;51.71;98528.53;6337357;22;19991;-88
2022/02/07 12:13:27;;;;;;;8.32;6.55;;;;;;;12.96;51.71;98519.78;6308994;22;20005;-87
2022/02/07 12:15:55;;;;;;;8.95;5.07;;;;;;;12.87;51.81;98508.66;6337186;22;20070;-87
2022/02/07 12:18:23;;;;;;;8.70;5.15;;;;;;;12.93;51.73;98496.38;6337183;22;20036;-87
2022/02/07 12:20:51;;;;;;;8.88;5.07;;;;;;;12.43;51.39;98416.94;6335807;22;20003;-86
2022/02/07 12:23:31;;;;;;;11.55;6.43;;;;;;;13.14;51.60;98541.00;6308646;22;20019;-87
2022/02/07 12:26:09;;;;;;;10.82;6.45;;;;;;;12.91;51.62;98477.22;6308496;22;20060;-87
2022/02/07 12:31:18;;;;;;;10.43;6.90;;;;;;;12.63;52.09;98427.34;6341958;22;20002;-86
2022/02/07 12:34:12;;;;;;;8.88;5.90;;;;;;;12.27;51.99;98375.16;6362570;22;19998;-85
2022/02/07 12:36:39;;;;;;;9.10;6.15;;;;;;;13.21;51.88;98512.63;6336447;22;19987;-85
2022/02/07 12:39:13;;;;;;;8.60;5.07;;;;;;;13.26;51.81;98496.06;6323492;22;19995;-86
2022/02/07 12:41:39;;;;;;;7.85;5.47;;;;;;;12.98;51.49;98472.69;6311641;22;20093;-85
2022/02/07 12:44:08;;;;;;;9.82;5.38;;;;;;;12.79;51.74;98445.34;6312069;22;20316;-86
2022/02/07 12:46:35;;;;;;;8.70;6.15;;;;;;;13.02;51.80;98464.06;6310358;22;20002;-87
2022/02/07 12:49:03;;;;;;;8.10;5.75;;;;;;;12.64;51.62;98419.22;6307050;22;20095;-87
2022/02/07 12:51:37;;;;;;;9.82;5.78;;;;;;;13.23;51.41;98505.25;6334723;22;19998;-88
2022/02/07 12:54:03;;;;;;;9.90;5.88;;;;;;;13.25;51.38;98502.38;6335247;22;20070;-87
2022/02/07 12:56:29;;;;;;;7.30;5.30;;;;;;;12.90;51.52;98454.41;6308999;22;20078;-88
2022/02/07 12:58:55;;;;;;;9.32;6.00;;;;;;;13.18;51.29;98505.09;6307487;22;20354;-88
2022/02/07 13:01:26;;;;;;;8.68;4.55;;;;;;;13.14;51.38;98498.59;6335442;22;20023;-88
2022/02/07 13:03:57;;;;;;;6.25;5.20;;;;;;;13.09;51.04;98492.34;6309874;22;20359;-89
2022/02/07 13:06:33;;;;;;;8.70;5.15;;;;;;;12.44;51.30;98407.97;6310392;22;20003;-90
2022/02/07 13:09:02;;;;;;;8.05;6.18;;;;;;;12.49;51.44;98412.63;6308401;22;20089;-89
2022/02/07 13:11:32;;;;;;;6.43;5.00;;;;;;;12.24;51.81;98402.06;6308740;22;19991;-87
2022/02/07 13:13:58;;;;;;;10.23;5.40;;;;;;;12.82;52.06;98497.09;6310040;22;20055;-90
2022/02/07 13:16:30;;;;;;;9.05;5.72;;;;;;;12.87;52.30;98498.06;6310302;22;20003;-90
2022/02/07 13:19:11;;;;;;;9.63;4.90;;;;;;;12.34;52.79;98457.94;6310318;22;20077;-88
2022/02/07 13:21:42;;;;;;;7.72;5.28;;;;;;;12.81;52.78;98495.47;6308989;22;20006;-89
2022/02/07 13:24:10;;;;;;;7.00;4.95;;;;;;;12.72;52.94;98494.94;6304081;22;20023;-88
2022/02/07 13:26:36;;;;;;;9.40;5.85;;;;;;;12.18;53.05;98413.50;6304583;22;19999;-89
2022/02/07 13:29:03;;;;;;;10.80;5.32;;;;;;;12.08;53.27;98388.34;6305267;22;20013;-89
2022/02/07 13:31:28;;;;;;;9.43;5.03;;;;;;;12.47;53.14;98441.97;6303738;22;19999;-89
2022/02/07 13:33:54;;;;;;;6.72;4.97;;;;;;;12.68;53.02;98476.03;6303094;22;20009;-88
2022/02/07 13:36:49;;;;;;;9.73;5.32;;;;;;;12.66;53.50;98480.72;6303099;22;20467;-89
2022/02/07 13:39:17;;;;;;;11.00;6.78;;;;;;;12.65;53.06;98465.88;6297940;22;19999;-89
2022/02/07 13:41:42;;;;;;;12.95;8.15;;;;;;;12.67;53.71;98463.81;6305536;22;20007;-89
2022/02/07 13:44:08;;;;;;;22.85;9.40;;;;;;;12.29;53.53;98396.91;6305429;22;20505;-92
2022/02/07 13:46:34;;;;;;;14.18;11.02;;;;;;;11.99;54.06;98363.19;6304227;22;19999;-91
2022/02/07 13:49:01;;;;;;;14.98;11.10;;;;;;;12.59;53.55;98458.75;6306125;22;20010;-91
2022/02/07 13:51:30;;;;;;;13.70;9.15;;;;;;;12.66;53.53;98450.78;6305836;22;19993;-89
2022/02/07 13:53:57;;;;;;;15.32;10.75;;;;;;;11.99;53.03;98376.41;6303720;22;20512;-90
2022/02/07 13:56:34;;;;;;;22.10;16.73;;;;;;;12.38;53.13;98406.19;6304235;22;20006;-89
2022/02/07 13:59:17;;;;;;;17.63;13.02;;;;;;;12.63;52.73;98441.44;6304253;22;20003;-90
2022/02/07 14:01:45;;;;;;;;;;;;;;;12.52;53.21;98446.59;6304841;22;20444;-90
2022/02/07 14:04:24;;;;;;;17.23;13.68;;;;;;;12.33;53.20;98419.28;6303655;22;19907;-91
2022/02/07 14:07:09;;;;;;;23.85;16.98;;;;;;;12.48;53.62;98430.34;6303834;22;19995;-89
2022/02/07 14:09:38;;;;;;;20.63;16.45;;;;;;;12.41;53.58;98443.63;6301553;22;20007;-88
2022/02/07 14:12:04;;;;;;;22.80;16.80;;;;;;;12.38;53.17;98433.47;6302951;22;20348;-88
2022/02/07 14:14:30;;;;;;;19.80;12.80;;;;;;;12.31;53.67;98419.50;6302881;22;20443;-89
2022/02/07 14:16:56;;;;;;;34.72;24.20;;;;;;;12.01;53.64;98400.00;6303204;22;20074;-88
2022/02/07 14:19:45;;;;;;;44.03;27.48;;;;;;;11.39;54.22;98309.03;6303536;22;19999;-88
2022/02/07 14:22:11;;;;;;;41.63;25.48;;;;;;;11.91;54.05;98389.09;6303575;22;20418;-89
2022/02/07 14:24:38;;;;;;;37.53;26.08;;;;;;;11.58;54.07;98368.91;6304689;22;20014;-88
2022/02/07 14:27:06;;;;;;;38.97;27.80;;;;;;;12.11;54.56;98447.13;6304382;22;19995;-88
2022/02/07 14:29:32;;;;;;;38.35;27.52;;;;;;;11.84;54.73;98390.94;6302218;22;19999;-86